Terminal Aerodrome Forecast
Issued by NWS Portland, OR

Home | Current Version | Previous Version | Text Only | Print | Product List | Glossary On
Versions: 1 2 3 4 5 6 7 8 9 10 11 12 13
000
FTUS46 KPQR 272330
TAFHIO
TAF
KHIO 272330Z 2800/2824 31008KT P6SM SCT025 BKN050
     FM280400 VRB04KT P6SM BKN040 BKN100=

USA.gov is the U.S. government's official web portal to all federal, state and local government web resources and services.